sensor_id;sensor_type;location;lat;lon;timestamp;P1;durP1;ratioP1;P2;durP2;ratioP2
39448;SDS011;25151;45.566;9.382;2023-07-24T00:00:22;5.55;;;3.13;;
39448;SDS011;25151;45.566;9.382;2023-07-24T00:02:50;6.30;;;2.53;;
39448;SDS011;25151;45.566;9.382;2023-07-24T00:05:22;3.83;;;2.60;;
39448;SDS011;25151;45.566;9.382;2023-07-24T00:07:51;4.43;;;2.90;;
39448;SDS011;25151;45.566;9.382;2023-07-24T00:10:27;4.65;;;3.00;;
39448;SDS011;25151;45.566;9.382;2023-07-24T00:12:54;4.50;;;2.90;;
39448;SDS011;25151;45.566;9.382;2023-07-24T00:15:21;3.72;;;2.97;;
39448;SDS011;25151;45.566;9.382;2023-07-24T00:17:51;5.50;;;3.25;;
39448;SDS011;25151;45.566;9.382;2023-07-24T00:20:18;5.00;;;3.40;;
39448;SDS011;25151;45.566;9.382;2023-07-24T00:22:48;5.63;;;3.20;;
39448;SDS011;25151;45.566;9.382;2023-07-24T00:25:18;6.45;;;3.10;;
39448;SDS011;25151;45.566;9.382;2023-07-24T00:27:45;4.28;;;2.90;;
39448;SDS011;25151;45.566;9.382;2023-07-24T00:30:13;5.32;;;2.80;;
39448;SDS011;25151;45.566;9.382;2023-07-24T00:32:46;5.25;;;2.92;;
39448;SDS011;25151;45.566;9.382;2023-07-24T00:35:16;5.57;;;3.22;;
39448;SDS011;25151;45.566;9.382;2023-07-24T00:37:43;5.50;;;3.40;;
39448;SDS011;25151;45.566;9.382;2023-07-24T00:40:16;4.55;;;3.08;;
39448;SDS011;25151;45.566;9.382;2023-07-24T00:42:47;7.85;;;3.42;;
39448;SDS011;25151;45.566;9.382;2023-07-24T00:45:17;4.63;;;3.20;;
39448;SDS011;25151;45.566;9.382;2023-07-24T00:47:47;6.05;;;3.10;;
39448;SDS011;25151;45.566;9.382;2023-07-24T00:50:14;6.00;;;3.83;;
39448;SDS011;25151;45.566;9.382;2023-07-24T00:52:44;5.18;;;3.17;;
39448;SDS011;25151;45.566;9.382;2023-07-24T00:55:15;6.15;;;3.13;;
39448;SDS011;25151;45.566;9.382;2023-07-24T00:57:43;6.18;;;3.35;;
39448;SDS011;25151;45.566;9.382;2023-07-24T01:00:10;7.53;;;3.15;;
39448;SDS011;25151;45.566;9.382;2023-07-24T01:02:44;3.80;;;2.70;;
39448;SDS011;25151;45.566;9.382;2023-07-24T01:05:13;4.57;;;2.95;;
39448;SDS011;25151;45.566;9.382;2023-07-24T01:07:45;5.72;;;3.22;;
39448;SDS011;25151;45.566;9.382;2023-07-24T01:10:12;6.77;;;3.73;;
39448;SDS011;25151;45.566;9.382;2023-07-24T01:15:32;4.28;;;2.85;;
39448;SDS011;25151;45.566;9.382;2023-07-24T01:18:11;3.75;;;2.67;;
39448;SDS011;25151;45.566;9.382;2023-07-24T01:20:45;6.57;;;3.33;;
39448;SDS011;25151;45.566;9.382;2023-07-24T01:26:25;5.82;;;3.47;;
39448;SDS011;25151;45.566;9.382;2023-07-24T01:28:55;10.90;;;3.20;;
39448;SDS011;25151;45.566;9.382;2023-07-24T01:31:22;4.53;;;3.08;;
39448;SDS011;25151;45.566;9.382;2023-07-24T01:33:49;5.82;;;2.78;;
39448;SDS011;25151;45.566;9.382;2023-07-24T01:36:17;4.57;;;3.22;;
39448;SDS011;25151;45.566;9.382;2023-07-24T01:38:50;5.15;;;3.45;;
39448;SDS011;25151;45.566;9.382;2023-07-24T01:41:17;4.85;;;3.30;;
39448;SDS011;25151;45.566;9.382;2023-07-24T01:43:45;4.63;;;3.20;;
39448;SDS011;25151;45.566;9.382;2023-07-24T01:46:12;6.95;;;3.55;;
39448;SDS011;25151;45.566;9.382;2023-07-24T01:48:40;6.57;;;3.10;;
39448;SDS011;25151;45.566;9.382;2023-07-24T01:51:11;6.80;;;3.58;;
39448;SDS011;25151;45.566;9.382;2023-07-24T01:53:38;5.78;;;3.58;;
39448;SDS011;25151;45.566;9.382;2023-07-24T01:56:06;4.28;;;2.70;;
39448;SDS011;25151;45.566;9.382;2023-07-24T01:58:39;4.22;;;3.20;;
39448;SDS011;25151;45.566;9.382;2023-07-24T02:01:06;5.13;;;3.45;;
39448;SDS011;25151;45.566;9.382;2023-07-24T02:03:33;5.82;;;3.47;;
39448;SDS011;25151;45.566;9.382;2023-07-24T02:06:04;5.18;;;3.47;;
39448;SDS011;25151;45.566;9.382;2023-07-24T02:08:36;5.63;;;3.20;;
39448;SDS011;25151;45.566;9.382;2023-07-24T02:11:07;4.25;;;3.03;;
39448;SDS011;25151;45.566;9.382;2023-07-24T02:13:37;5.45;;;3.40;;
39448;SDS011;25151;45.566;9.382;2023-07-24T02:16:05;5.22;;;3.40;;
39448;SDS011;25151;45.566;9.382;2023-07-24T02:18:32;5.65;;;3.80;;
39448;SDS011;25151;45.566;9.382;2023-07-24T02:20:59;3.70;;;2.67;;
39448;SDS011;25151;45.566;9.382;2023-07-24T02:23:26;4.40;;;3.20;;
39448;SDS011;25151;45.566;9.382;2023-07-24T02:25:56;5.40;;;3.53;;
39448;SDS011;25151;45.566;9.382;2023-07-24T02:28:23;4.40;;;3.22;;
39448;SDS011;25151;45.566;9.382;2023-07-24T02:30:56;3.60;;;3.20;;
39448;SDS011;25151;45.566;9.382;2023-07-24T02:33:26;5.00;;;3.20;;
39448;SDS011;25151;45.566;9.382;2023-07-24T02:35:53;6.63;;;3.47;;
39448;SDS011;25151;45.566;9.382;2023-07-24T02:38:26;5.25;;;3.58;;
39448;SDS011;25151;45.566;9.382;2023-07-24T02:40:55;4.32;;;3.25;;
39448;SDS011;25151;45.566;9.382;2023-07-24T02:43:22;5.35;;;3.45;;
39448;SDS011;25151;45.566;9.382;2023-07-24T02:45:50;6.72;;;3.83;;
39448;SDS011;25151;45.566;9.382;2023-07-24T02:48:17;5.10;;;3.00;;
39448;SDS011;25151;45.566;9.382;2023-07-24T02:50:46;5.80;;;3.17;;
39448;SDS011;25151;45.566;9.382;2023-07-24T02:53:14;5.07;;;3.23;;
39448;SDS011;25151;45.566;9.382;2023-07-24T02:58:13;4.57;;;3.25;;
39448;SDS011;25151;45.566;9.382;2023-07-24T03:03:10;3.78;;;3.35;;
39448;SDS011;25151;45.566;9.382;2023-07-24T03:05:37;4.78;;;3.35;;
39448;SDS011;25151;45.566;9.382;2023-07-24T03:08:11;6.82;;;3.40;;
39448;SDS011;25151;45.566;9.382;2023-07-24T03:10:41;6.30;;;3.20;;
39448;SDS011;25151;45.566;9.382;2023-07-24T03:13:13;5.97;;;3.50;;
39448;SDS011;25151;45.566;9.382;2023-07-24T03:15:40;13.10;;;8.67;;
39448;SDS011;25151;45.566;9.382;2023-07-24T03:18:10;20.77;;;9.63;;
39448;SDS011;25151;45.566;9.382;2023-07-24T03:20:37;14.50;;;9.77;;
39448;SDS011;25151;45.566;9.382;2023-07-24T03:23:05;18.27;;;10.30;;
39448;SDS011;25151;45.566;9.382;2023-07-24T03:25:35;15.73;;;10.75;;
39448;SDS011;25151;45.566;9.382;2023-07-24T03:28:02;17.02;;;10.90;;
39448;SDS011;25151;45.566;9.382;2023-07-24T03:30:30;19.55;;;12.43;;
39448;SDS011;25151;45.566;9.382;2023-07-24T03:32:57;16.38;;;11.27;;
39448;SDS011;25151;45.566;9.382;2023-07-24T03:35:27;19.13;;;12.80;;
39448;SDS011;25151;45.566;9.382;2023-07-24T03:37:54;15.18;;;11.10;;
39448;SDS011;25151;45.566;9.382;2023-07-24T03:40:21;17.50;;;10.65;;
39448;SDS011;25151;45.566;9.382;2023-07-24T03:42:50;13.30;;;10.75;;
39448;SDS011;25151;45.566;9.382;2023-07-24T03:45:17;17.08;;;12.05;;
39448;SDS011;25151;45.566;9.382;2023-07-24T03:47:53;17.88;;;12.63;;
39448;SDS011;25151;45.566;9.382;2023-07-24T03:50:20;17.08;;;12.75;;
39448;SDS011;25151;45.566;9.382;2023-07-24T03:52:47;12.23;;;10.07;;
39448;SDS011;25151;45.566;9.382;2023-07-24T03:55:14;18.33;;;11.65;;
39448;SDS011;25151;45.566;9.382;2023-07-24T03:57:47;18.88;;;12.00;;
39448;SDS011;25151;45.566;9.382;2023-07-24T04:00:14;17.17;;;13.20;;
39448;SDS011;25151;45.566;9.382;2023-07-24T04:02:44;15.57;;;11.15;;
39448;SDS011;25151;45.566;9.382;2023-07-24T04:05:11;19.02;;;12.43;;
39448;SDS011;25151;45.566;9.382;2023-07-24T04:07:38;14.57;;;11.43;;
39448;SDS011;25151;45.566;9.382;2023-07-24T04:10:04;18.55;;;12.55;;
39448;SDS011;25151;45.566;9.382;2023-07-24T04:12:32;20.60;;;12.43;;
39448;SDS011;25151;45.566;9.382;2023-07-24T04:15:00;23.80;;;13.20;;
39448;SDS011;25151;45.566;9.382;2023-07-24T04:17:26;16.45;;;11.80;;
39448;SDS011;25151;45.566;9.382;2023-07-24T04:19:53;17.48;;;11.25;;
39448;SDS011;25151;45.566;9.382;2023-07-24T04:22:20;21.42;;;12.60;;
39448;SDS011;25151;45.566;9.382;2023-07-24T04:24:50;19.13;;;11.98;;
39448;SDS011;25151;45.566;9.382;2023-07-24T04:27:23;15.43;;;11.10;;
39448;SDS011;25151;45.566;9.382;2023-07-24T04:29:53;19.25;;;12.60;;
39448;SDS011;25151;45.566;9.382;2023-07-24T04:32:20;17.35;;;13.40;;
39448;SDS011;25151;45.566;9.382;2023-07-24T04:34:47;19.83;;;12.55;;
39448;SDS011;25151;45.566;9.382;2023-07-24T04:37:14;19.88;;;11.98;;
39448;SDS011;25151;45.566;9.382;2023-07-24T04:39:44;16.88;;;12.30;;
39448;SDS011;25151;45.566;9.382;2023-07-24T04:42:12;17.60;;;12.43;;
39448;SDS011;25151;45.566;9.382;2023-07-24T04:44:42;16.55;;;12.05;;
39448;SDS011;25151;45.566;9.382;2023-07-24T04:47:12;17.20;;;11.98;;
39448;SDS011;25151;45.566;9.382;2023-07-24T04:49:45;17.25;;;11.70;;
39448;SDS011;25151;45.566;9.382;2023-07-24T04:52:18;19.17;;;12.32;;
39448;SDS011;25151;45.566;9.382;2023-07-24T04:54:45;14.07;;;11.02;;
39448;SDS011;25151;45.566;9.382;2023-07-24T04:57:15;20.38;;;13.43;;
39448;SDS011;25151;45.566;9.382;2023-07-24T04:59:42;18.42;;;13.15;;
39448;SDS011;25151;45.566;9.382;2023-07-24T05:02:10;17.58;;;13.02;;
39448;SDS011;25151;45.566;9.382;2023-07-24T05:04:37;18.75;;;13.43;;
39448;SDS011;25151;45.566;9.382;2023-07-24T05:07:08;17.85;;;13.38;;
39448;SDS011;25151;45.566;9.382;2023-07-24T05:09:38;19.05;;;13.75;;
39448;SDS011;25151;45.566;9.382;2023-07-24T05:12:06;17.63;;;12.65;;
39448;SDS011;25151;45.566;9.382;2023-07-24T05:14:34;18.50;;;11.95;;
39448;SDS011;25151;45.566;9.382;2023-07-24T05:17:01;17.73;;;13.45;;
39448;SDS011;25151;45.566;9.382;2023-07-24T05:19:31;21.50;;;13.73;;
39448;SDS011;25151;45.566;9.382;2023-07-24T05:22:03;21.33;;;14.82;;
39448;SDS011;25151;45.566;9.382;2023-07-24T05:24:33;23.77;;;13.82;;
39448;SDS011;25151;45.566;9.382;2023-07-24T05:27:00;22.75;;;14.88;;
39448;SDS011;25151;45.566;9.382;2023-07-24T05:29:27;24.17;;;15.27;;
39448;SDS011;25151;45.566;9.382;2023-07-24T05:31:55;20.17;;;14.25;;
39448;SDS011;25151;45.566;9.382;2023-07-24T05:34:27;21.48;;;14.20;;
39448;SDS011;25151;45.566;9.382;2023-07-24T05:36:54;22.33;;;14.63;;
39448;SDS011;25151;45.566;9.382;2023-07-24T05:39:24;24.30;;;14.13;;
39448;SDS011;25151;45.566;9.382;2023-07-24T05:44:21;20.75;;;14.18;;
39448;SDS011;25151;45.566;9.382;2023-07-24T05:46:48;17.20;;;13.63;;
39448;SDS011;25151;45.566;9.382;2023-07-24T05:49:17;19.67;;;14.27;;
39448;SDS011;25151;45.566;9.382;2023-07-24T05:51:44;21.02;;;13.80;;
39448;SDS011;25151;45.566;9.382;2023-07-24T05:54:12;18.17;;;14.05;;
39448;SDS011;25151;45.566;9.382;2023-07-24T05:56:43;21.88;;;14.20;;
39448;SDS011;25151;45.566;9.382;2023-07-24T05:59:10;21.70;;;13.88;;
39448;SDS011;25151;45.566;9.382;2023-07-24T06:01:39;17.00;;;13.13;;
39448;SDS011;25151;45.566;9.382;2023-07-24T06:04:05;23.02;;;14.43;;
39448;SDS011;25151;45.566;9.382;2023-07-24T06:06:35;18.70;;;14.23;;
39448;SDS011;25151;45.566;9.382;2023-07-24T06:09:05;19.15;;;13.95;;
39448;SDS011;25151;45.566;9.382;2023-07-24T06:11:38;21.40;;;14.20;;
39448;SDS011;25151;45.566;9.382;2023-07-24T06:14:06;19.73;;;13.63;;
39448;SDS011;25151;45.566;9.382;2023-07-24T06:16:39;17.20;;;13.07;;
39448;SDS011;25151;45.566;9.382;2023-07-24T06:19:11;17.45;;;13.52;;
39448;SDS011;25151;45.566;9.382;2023-07-24T06:21:39;17.58;;;13.23;;
39448;SDS011;25151;45.566;9.382;2023-07-24T06:24:12;27.55;;;15.82;;
39448;SDS011;25151;45.566;9.382;2023-07-24T06:26:39;19.98;;;13.73;;
39448;SDS011;25151;45.566;9.382;2023-07-24T06:29:07;21.35;;;14.73;;
39448;SDS011;25151;45.566;9.382;2023-07-24T06:31:34;19.25;;;13.05;;
39448;SDS011;25151;45.566;9.382;2023-07-24T06:34:04;23.67;;;13.88;;
39448;SDS011;25151;45.566;9.382;2023-07-24T06:36:41;20.90;;;14.73;;
39448;SDS011;25151;45.566;9.382;2023-07-24T06:39:10;19.10;;;13.60;;
39448;SDS011;25151;45.566;9.382;2023-07-24T06:41:43;20.17;;;13.93;;
39448;SDS011;25151;45.566;9.382;2023-07-24T06:44:13;19.05;;;13.52;;
39448;SDS011;25151;45.566;9.382;2023-07-24T06:49:10;18.05;;;13.10;;
39448;SDS011;25151;45.566;9.382;2023-07-24T06:51:39;19.08;;;13.27;;
39448;SDS011;25151;45.566;9.382;2023-07-24T06:56:38;17.42;;;12.80;;
39448;SDS011;25151;45.566;9.382;2023-07-24T06:59:08;19.67;;;12.43;;
39448;SDS011;25151;45.566;9.382;2023-07-24T07:01:38;20.40;;;12.85;;
39448;SDS011;25151;45.566;9.382;2023-07-24T07:04:08;19.40;;;12.85;;
39448;SDS011;25151;45.566;9.382;2023-07-24T07:06:44;16.95;;;12.73;;
39448;SDS011;25151;45.566;9.382;2023-07-24T07:09:18;20.88;;;12.93;;
39448;SDS011;25151;45.566;9.382;2023-07-24T07:11:54;16.08;;;12.00;;
39448;SDS011;25151;45.566;9.382;2023-07-24T07:14:22;17.38;;;12.55;;
39448;SDS011;25151;45.566;9.382;2023-07-24T07:16:57;16.55;;;12.52;;
39448;SDS011;25151;45.566;9.382;2023-07-24T07:19:31;19.42;;;12.57;;
39448;SDS011;25151;45.566;9.382;2023-07-24T07:22:01;16.23;;;11.95;;
39448;SDS011;25151;45.566;9.382;2023-07-24T07:24:35;18.08;;;12.30;;
39448;SDS011;25151;45.566;9.382;2023-07-24T07:27:02;20.42;;;12.70;;
39448;SDS011;25151;45.566;9.382;2023-07-24T07:29:32;17.00;;;11.82;;
39448;SDS011;25151;45.566;9.382;2023-07-24T07:32:00;19.95;;;13.07;;
39448;SDS011;25151;45.566;9.382;2023-07-24T07:34:30;19.50;;;12.85;;
39448;SDS011;25151;45.566;9.382;2023-07-24T07:36:56;15.80;;;12.18;;
39448;SDS011;25151;45.566;9.382;2023-07-24T07:39:23;15.50;;;11.25;;
39448;SDS011;25151;45.566;9.382;2023-07-24T07:41:51;18.20;;;11.68;;
39448;SDS011;25151;45.566;9.382;2023-07-24T07:44:20;16.95;;;12.80;;
39448;SDS011;25151;45.566;9.382;2023-07-24T07:46:50;20.35;;;12.25;;
39448;SDS011;25151;45.566;9.382;2023-07-24T07:49:18;17.88;;;11.55;;
39448;SDS011;25151;45.566;9.382;2023-07-24T07:51:44;22.15;;;11.82;;
39448;SDS011;25151;45.566;9.382;2023-07-24T07:54:11;18.30;;;12.18;;
39448;SDS011;25151;45.566;9.382;2023-07-24T07:56:42;15.73;;;11.48;;
39448;SDS011;25151;45.566;9.382;2023-07-24T07:59:14;18.92;;;12.18;;
39448;SDS011;25151;45.566;9.382;2023-07-24T08:01:44;18.98;;;12.02;;
39448;SDS011;25151;45.566;9.382;2023-07-24T08:04:15;20.75;;;13.45;;
39448;SDS011;25151;45.566;9.382;2023-07-24T08:06:46;16.83;;;11.70;;
39448;SDS011;25151;45.566;9.382;2023-07-24T08:09:19;18.25;;;12.18;;
39448;SDS011;25151;45.566;9.382;2023-07-24T08:11:49;16.45;;;11.45;;
39448;SDS011;25151;45.566;9.382;2023-07-24T08:14:21;15.43;;;12.05;;
39448;SDS011;25151;45.566;9.382;2023-07-24T08:16:55;15.50;;;11.98;;
39448;SDS011;25151;45.566;9.382;2023-07-24T08:19:27;17.55;;;12.77;;
39448;SDS011;25151;45.566;9.382;2023-07-24T08:21:56;16.95;;;12.02;;
39448;SDS011;25151;45.566;9.382;2023-07-24T08:26:58;19.98;;;12.68;;
39448;SDS011;25151;45.566;9.382;2023-07-24T08:29:30;16.83;;;11.73;;
39448;SDS011;25151;45.566;9.382;2023-07-24T08:31:58;16.52;;;11.05;;
39448;SDS011;25151;45.566;9.382;2023-07-24T08:34:25;17.10;;;10.95;;
39448;SDS011;25151;45.566;9.382;2023-07-24T08:37:01;19.10;;;11.98;;
39448;SDS011;25151;45.566;9.382;2023-07-24T08:39:30;18.43;;;13.23;;
39448;SDS011;25151;45.566;9.382;2023-07-24T08:42:07;17.15;;;12.18;;
39448;SDS011;25151;45.566;9.382;2023-07-24T08:44:37;17.05;;;12.00;;
39448;SDS011;25151;45.566;9.382;2023-07-24T08:47:10;18.02;;;12.02;;
39448;SDS011;25151;45.566;9.382;2023-07-24T08:49:40;17.48;;;12.35;;
39448;SDS011;25151;45.566;9.382;2023-07-24T08:52:12;16.67;;;12.55;;
39448;SDS011;25151;45.566;9.382;2023-07-24T08:57:08;15.50;;;11.32;;
39448;SDS011;25151;45.566;9.382;2023-07-24T08:59:39;17.92;;;11.57;;
39448;SDS011;25151;45.566;9.382;2023-07-24T09:02:08;15.35;;;11.70;;
39448;SDS011;25151;45.566;9.382;2023-07-24T09:04:37;16.80;;;11.55;;
39448;SDS011;25151;45.566;9.382;2023-07-24T09:07:06;17.65;;;11.98;;
39448;SDS011;25151;45.566;9.382;2023-07-24T09:09:39;13.60;;;10.70;;
39448;SDS011;25151;45.566;9.382;2023-07-24T09:14:45;15.50;;;10.57;;
39448;SDS011;25151;45.566;9.382;2023-07-24T09:17:16;15.90;;;10.80;;
39448;SDS011;25151;45.566;9.382;2023-07-24T09:19:45;16.42;;;11.40;;
39448;SDS011;25151;45.566;9.382;2023-07-24T09:22:14;15.57;;;11.27;;
39448;SDS011;25151;45.566;9.382;2023-07-24T09:24:53;15.02;;;11.25;;
39448;SDS011;25151;45.566;9.382;2023-07-24T09:27:28;16.33;;;11.43;;
39448;SDS011;25151;45.566;9.382;2023-07-24T09:30:01;16.15;;;11.43;;
39448;SDS011;25151;45.566;9.382;2023-07-24T09:32:38;16.20;;;11.17;;
39448;SDS011;25151;45.566;9.382;2023-07-24T09:35:16;13.68;;;10.15;;
39448;SDS011;25151;45.566;9.382;2023-07-24T09:38:01;14.13;;;10.82;;
39448;SDS011;25151;45.566;9.382;2023-07-24T09:40:44;17.80;;;10.90;;
39448;SDS011;25151;45.566;9.382;2023-07-24T09:43:19;18.63;;;11.88;;
39448;SDS011;25151;45.566;9.382;2023-07-24T09:45:56;16.48;;;11.48;;
39448;SDS011;25151;45.566;9.382;2023-07-24T09:48:25;16.85;;;11.50;;
39448;SDS011;25151;45.566;9.382;2023-07-24T09:50:58;16.45;;;10.85;;
39448;SDS011;25151;45.566;9.382;2023-07-24T09:56:33;14.85;;;11.13;;
39448;SDS011;25151;45.566;9.382;2023-07-24T09:59:11;16.27;;;11.20;;
39448;SDS011;25151;45.566;9.382;2023-07-24T10:01:47;14.95;;;11.05;;
39448;SDS011;25151;45.566;9.382;2023-07-24T10:04:20;16.13;;;11.07;;
39448;SDS011;25151;45.566;9.382;2023-07-24T10:06:55;16.08;;;11.10;;
39448;SDS011;25151;45.566;9.382;2023-07-24T10:09:28;18.42;;;12.05;;
39448;SDS011;25151;45.566;9.382;2023-07-24T10:14:27;15.07;;;10.75;;
39448;SDS011;25151;45.566;9.382;2023-07-24T10:16:58;17.33;;;11.70;;
39448;SDS011;25151;45.566;9.382;2023-07-24T10:19:34;20.67;;;12.60;;
39448;SDS011;25151;45.566;9.382;2023-07-24T10:22:05;17.55;;;12.55;;
39448;SDS011;25151;45.566;9.382;2023-07-24T10:24:45;19.63;;;12.68;;
39448;SDS011;25151;45.566;9.382;2023-07-24T10:27:22;20.30;;;13.40;;
39448;SDS011;25151;45.566;9.382;2023-07-24T10:30:03;19.95;;;12.90;;
39448;SDS011;25151;45.566;9.382;2023-07-24T10:32:47;20.80;;;13.65;;
39448;SDS011;25151;45.566;9.382;2023-07-24T10:35:18;16.30;;;12.32;;
39448;SDS011;25151;45.566;9.382;2023-07-24T10:37:59;20.67;;;12.82;;
39448;SDS011;25151;45.566;9.382;2023-07-24T10:40:28;16.15;;;12.18;;
39448;SDS011;25151;45.566;9.382;2023-07-24T10:43:08;19.38;;;13.15;;
39448;SDS011;25151;45.566;9.382;2023-07-24T10:45:54;19.75;;;14.07;;
39448;SDS011;25151;45.566;9.382;2023-07-24T10:48:31;15.15;;;12.05;;
39448;SDS011;25151;45.566;9.382;2023-07-24T10:51:11;18.13;;;12.57;;
39448;SDS011;25151;45.566;9.382;2023-07-24T10:53:46;17.63;;;12.85;;
39448;SDS011;25151;45.566;9.382;2023-07-24T10:56:22;17.60;;;12.73;;
39448;SDS011;25151;45.566;9.382;2023-07-24T10:59:01;19.55;;;12.38;;
39448;SDS011;25151;45.566;9.382;2023-07-24T11:01:33;17.63;;;12.48;;
39448;SDS011;25151;45.566;9.382;2023-07-24T11:04:08;16.67;;;11.82;;
39448;SDS011;25151;45.566;9.382;2023-07-24T11:06:40;21.67;;;12.40;;
39448;SDS011;25151;45.566;9.382;2023-07-24T11:09:11;16.17;;;12.63;;
39448;SDS011;25151;45.566;9.382;2023-07-24T11:11:44;18.58;;;12.55;;
39448;SDS011;25151;45.566;9.382;2023-07-24T11:14:14;15.10;;;11.65;;
39448;SDS011;25151;45.566;9.382;2023-07-24T11:16:49;22.52;;;12.45;;
39448;SDS011;25151;45.566;9.382;2023-07-24T11:19:27;16.73;;;11.63;;
39448;SDS011;25151;45.566;9.382;2023-07-24T11:22:00;17.40;;;11.90;;
39448;SDS011;25151;45.566;9.382;2023-07-24T11:24:31;15.90;;;11.25;;
39448;SDS011;25151;45.566;9.382;2023-07-24T11:27:13;19.27;;;12.05;;
39448;SDS011;25151;45.566;9.382;2023-07-24T11:29:50;22.88;;;12.52;;
39448;SDS011;25151;45.566;9.382;2023-07-24T11:32:23;15.82;;;11.57;;
39448;SDS011;25151;45.566;9.382;2023-07-24T11:34:59;19.40;;;11.90;;
39448;SDS011;25151;45.566;9.382;2023-07-24T11:37:26;19.75;;;11.45;;
39448;SDS011;25151;45.566;9.382;2023-07-24T11:39:57;18.85;;;12.68;;
39448;SDS011;25151;45.566;9.382;2023-07-24T11:42:46;21.52;;;12.38;;
39448;SDS011;25151;45.566;9.382;2023-07-24T11:45:17;20.20;;;12.45;;
39448;SDS011;25151;45.566;9.382;2023-07-24T11:47:52;20.45;;;12.05;;
39448;SDS011;25151;45.566;9.382;2023-07-24T11:50:41;17.65;;;12.60;;
39448;SDS011;25151;45.566;9.382;2023-07-24T11:53:22;19.23;;;12.90;;
39448;SDS011;25151;45.566;9.382;2023-07-24T11:55:53;17.80;;;12.55;;
39448;SDS011;25151;45.566;9.382;2023-07-24T11:58:30;22.73;;;12.63;;
39448;SDS011;25151;45.566;9.382;2023-07-24T12:01:02;15.88;;;11.38;;
39448;SDS011;25151;45.566;9.382;2023-07-24T12:03:30;18.20;;;11.52;;
39448;SDS011;25151;45.566;9.382;2023-07-24T12:16:10;17.77;;;11.48;;
39448;SDS011;25151;45.566;9.382;2023-07-24T12:18:42;16.80;;;11.68;;
39448;SDS011;25151;45.566;9.382;2023-07-24T12:21:15;22.23;;;13.50;;
39448;SDS011;25151;45.566;9.382;2023-07-24T12:23:49;17.77;;;12.13;;
39448;SDS011;25151;45.566;9.382;2023-07-24T12:26:17;20.52;;;12.73;;
39448;SDS011;25151;45.566;9.382;2023-07-24T12:28:53;15.32;;;11.27;;
39448;SDS011;25151;45.566;9.382;2023-07-24T12:31:32;17.95;;;11.55;;
39448;SDS011;25151;45.566;9.382;2023-07-24T12:34:01;21.52;;;12.25;;
39448;SDS011;25151;45.566;9.382;2023-07-24T12:36:33;18.15;;;12.13;;
39448;SDS011;25151;45.566;9.382;2023-07-24T12:39:07;18.65;;;11.52;;
39448;SDS011;25151;45.566;9.382;2023-07-24T12:41:34;17.58;;;12.02;;
39448;SDS011;25151;45.566;9.382;2023-07-24T12:44:05;19.17;;;11.82;;
39448;SDS011;25151;45.566;9.382;2023-07-24T12:46:32;20.63;;;12.35;;
39448;SDS011;25151;45.566;9.382;2023-07-24T12:49:00;19.73;;;12.93;;
39448;SDS011;25151;45.566;9.382;2023-07-24T12:51:28;19.25;;;12.63;;
39448;SDS011;25151;45.566;9.382;2023-07-24T12:54:02;19.60;;;11.50;;
39448;SDS011;25151;45.566;9.382;2023-07-24T12:56:31;21.47;;;13.27;;
39448;SDS011;25151;45.566;9.382;2023-07-24T12:59:07;16.63;;;11.73;;
39448;SDS011;25151;45.566;9.382;2023-07-24T13:01:34;16.45;;;12.40;;
39448;SDS011;25151;45.566;9.382;2023-07-24T13:04:01;17.40;;;11.43;;
39448;SDS011;25151;45.566;9.382;2023-07-24T13:06:29;18.48;;;12.45;;
39448;SDS011;25151;45.566;9.382;2023-07-24T13:08:56;17.00;;;12.38;;
39448;SDS011;25151;45.566;9.382;2023-07-24T13:11:25;19.27;;;12.05;;
39448;SDS011;25151;45.566;9.382;2023-07-24T13:13:55;19.83;;;11.75;;
39448;SDS011;25151;45.566;9.382;2023-07-24T13:16:22;17.67;;;12.30;;
39448;SDS011;25151;45.566;9.382;2023-07-24T13:18:50;16.52;;;11.73;;
39448;SDS011;25151;45.566;9.382;2023-07-24T13:21:18;17.55;;;12.25;;
39448;SDS011;25151;45.566;9.382;2023-07-24T13:23:46;20.42;;;12.57;;
39448;SDS011;25151;45.566;9.382;2023-07-24T13:26:14;18.13;;;12.13;;
39448;SDS011;25151;45.566;9.382;2023-07-24T13:28:45;15.82;;;11.20;;
39448;SDS011;25151;45.566;9.382;2023-07-24T13:31:18;15.43;;;11.02;;
39448;SDS011;25151;45.566;9.382;2023-07-24T13:36:14;17.70;;;12.68;;
39448;SDS011;25151;45.566;9.382;2023-07-24T13:38:46;19.25;;;11.88;;
39448;SDS011;25151;45.566;9.382;2023-07-24T13:41:15;19.20;;;12.48;;
39448;SDS011;25151;45.566;9.382;2023-07-24T13:43:42;19.02;;;12.45;;
39448;SDS011;25151;45.566;9.382;2023-07-24T13:46:14;19.38;;;12.85;;
39448;SDS011;25151;45.566;9.382;2023-07-24T13:48:41;21.58;;;12.32;;
39448;SDS011;25151;45.566;9.382;2023-07-24T13:51:09;19.52;;;11.88;;
39448;SDS011;25151;45.566;9.382;2023-07-24T13:53:37;15.77;;;11.70;;
39448;SDS011;25151;45.566;9.382;2023-07-24T13:56:03;21.48;;;12.25;;
39448;SDS011;25151;45.566;9.382;2023-07-24T13:58:31;20.92;;;13.00;;
39448;SDS011;25151;45.566;9.382;2023-07-24T14:01:03;16.65;;;11.35;;
39448;SDS011;25151;45.566;9.382;2023-07-24T14:03:32;18.15;;;12.00;;
39448;SDS011;25151;45.566;9.382;2023-07-24T14:06:03;18.20;;;11.52;;
39448;SDS011;25151;45.566;9.382;2023-07-24T14:11:00;17.77;;;11.57;;
39448;SDS011;25151;45.566;9.382;2023-07-24T14:13:32;17.83;;;11.55;;
39448;SDS011;25151;45.566;9.382;2023-07-24T14:16:00;17.95;;;11.23;;
39448;SDS011;25151;45.566;9.382;2023-07-24T14:18:27;17.35;;;11.65;;
39448;SDS011;25151;45.566;9.382;2023-07-24T14:20:54;15.77;;;10.32;;
39448;SDS011;25151;45.566;9.382;2023-07-24T14:23:25;18.73;;;11.68;;
39448;SDS011;25151;45.566;9.382;2023-07-24T14:25:56;16.52;;;10.73;;
39448;SDS011;25151;45.566;9.382;2023-07-24T14:28:24;17.02;;;10.40;;
39448;SDS011;25151;45.566;9.382;2023-07-24T14:30:51;16.45;;;10.32;;
39448;SDS011;25151;45.566;9.382;2023-07-24T14:35:54;18.60;;;11.45;;
39448;SDS011;25151;45.566;9.382;2023-07-24T14:38:20;16.88;;;11.27;;
39448;SDS011;25151;45.566;9.382;2023-07-24T14:40:48;16.08;;;11.43;;
39448;SDS011;25151;45.566;9.382;2023-07-24T14:43:15;14.98;;;10.65;;
39448;SDS011;25151;45.566;9.382;2023-07-24T14:45:44;15.00;;;11.45;;
39448;SDS011;25151;45.566;9.382;2023-07-24T14:48:10;17.90;;;11.13;;
39448;SDS011;25151;45.566;9.382;2023-07-24T14:50:38;15.43;;;10.82;;
39448;SDS011;25151;45.566;9.382;2023-07-24T14:53:14;15.98;;;10.63;;
39448;SDS011;25151;45.566;9.382;2023-07-24T14:55:42;14.88;;;10.90;;
39448;SDS011;25151;45.566;9.382;2023-07-24T14:58:08;15.60;;;11.00;;
39448;SDS011;25151;45.566;9.382;2023-07-24T15:00:37;16.67;;;10.73;;
39448;SDS011;25151;45.566;9.382;2023-07-24T15:03:05;17.45;;;11.02;;
39448;SDS011;25151;45.566;9.382;2023-07-24T15:05:33;16.58;;;11.23;;
39448;SDS011;25151;45.566;9.382;2023-07-24T15:08:02;14.45;;;10.02;;
39448;SDS011;25151;45.566;9.382;2023-07-24T15:10:30;14.50;;;9.70;;
39448;SDS011;25151;45.566;9.382;2023-07-24T15:12:57;16.65;;;10.75;;
39448;SDS011;25151;45.566;9.382;2023-07-24T15:15:26;15.57;;;10.63;;
39448;SDS011;25151;45.566;9.382;2023-07-24T15:17:53;16.85;;;10.63;;
39448;SDS011;25151;45.566;9.382;2023-07-24T15:20:21;13.75;;;10.05;;
39448;SDS011;25151;45.566;9.382;2023-07-24T15:22:49;13.65;;;10.18;;
39448;SDS011;25151;45.566;9.382;2023-07-24T15:25:19;15.40;;;11.20;;
39448;SDS011;25151;45.566;9.382;2023-07-24T15:27:46;16.63;;;10.07;;
39448;SDS011;25151;45.566;9.382;2023-07-24T15:30:13;14.18;;;10.45;;
39448;SDS011;25151;45.566;9.382;2023-07-24T15:32:40;14.48;;;10.48;;